Ringgold, VA (24586)

11:48 AM EST on December 07, 2016 (GMT -0500)
Kentuck Community | | Change Station

Elev 692 ft 36.64 °N, 79.31 °W | Updated 4 seconds ago

Clear
Clear
52.8 °F
Feels Like 52.8 °F
N
3.0
Wind Variable Wind from WNW
Gusts 12.0 mph

Today
High -- | Low -- °F
--% Chance of Precip.
Yesterday
High -- | Low -- °F
Precip. -- in
Pressure 30.07 in
Visibility 10.0 miles
Clouds Clear
Dew Point 41 °F
Humidity 63%
Rainfall 0.00 in
Snow Depth Not available.
7:16 AM 5:01 PM
First Quarter, 54% visible
METAR KTDF 071625Z AUTO 35004KT 10SM CLR 11/02 A3007 RMK AO2
Pressure 30.07 in
Visibility 10.0 miles
Clouds Clear
Dew Point 41 °F
Humidity 63%
Rainfall 0.00 in
Snow Depth Not available.
7:16 AM 5:01 PM
First Quarter, 54% visible
METAR KTDF 071625Z AUTO 35004KT 10SM CLR 11/02 A3007 RMK AO2

10-Day Weather Forecast

Almanac

Astronomy

Dec. 07, 2016 Rise Set
Actual Time
Civil Twilight
Nautical Twilight
Astronomical Twilight
Moon
Length of Visible Light
Length of Day
Tomorrow will be .
, % of the Moon is Illuminated

Today's Extremes

State Highs State Lows

Community

WunderPhotos

Upload Photos

1,956,132 photos uploaded!

WunderBlog® & News

Nearby

Air Quality

  Air Quality AQ Index Pollutant
Not available.

Snow Depth

Station Depth Elevation

Earthquake Activity

City Distance Mag. Time & Date
Minimum magnitude displayed is 2.5.

Coastal Water Temperatures

Place Temperature

Stations

Nearby Weather Stations

Station Location Temp. Windchill Dew Point Humidity Wind Precip. Elev Updated Type
                   

Watches & Warnings

There are currently no watches in effect.